Time;durP1;ratioP1;P1;durP2;ratioP2;P2;SDS_P1;SDS_P2;PMS_P1;PMS_P2;Temp;Humidity;BMP_temperature;BMP_pressure;BME280_temperature;BME280_humidity;BME280_pressure;Samples;Min_cycle;Max_cycle;Signal;HPM_P1;HPM_P2
2022/02/22 00:00:07;;;;;;;35.03;4.60;;;6.10;99.90;;;;;;5113153;28;20028;-77
2022/02/22 00:02:33;;;;;;;34.28;4.10;;;6.10;99.90;;;;;;5112600;28;20024;-77
2022/02/22 00:04:59;;;;;;;25.52;5.10;;;6.00;99.90;;;;;;5112738;28;20152;-77
2022/02/22 00:07:24;;;;;;;45.75;4.38;;;6.10;99.90;;;;;;5112875;28;20047;-77
2022/02/22 00:09:50;;;;;;;31.85;3.55;;;6.10;99.90;;;;;;5112437;28;20060;-78
2022/02/22 00:12:18;;;;;;;36.45;5.82;;;6.10;99.90;;;;;;5113243;28;20107;-77
2022/02/22 00:14:44;;;;;;;36.03;4.47;;;6.00;99.90;;;;;;5112879;28;20436;-77
2022/02/22 00:17:09;;;;;;;34.78;4.13;;;6.00;99.90;;;;;;5112434;28;20027;-78
2022/02/22 00:19:35;;;;;;;46.45;7.43;;;6.00;99.90;;;;;;5113078;28;20027;-76
2022/02/22 00:22:00;;;;;;;29.35;4.18;;;5.90;99.90;;;;;;5112848;28;20034;-76
2022/02/22 00:24:26;;;;;;;42.22;5.40;;;5.90;99.90;;;;;;5112466;28;20179;-77
2022/02/22 00:26:51;;;;;;;37.13;5.07;;;5.90;99.90;;;;;;5112584;28;20038;-77
2022/02/22 00:29:17;;;;;;;43.30;5.53;;;5.80;99.90;;;;;;5112054;28;20038;-76
2022/02/22 00:31:43;;;;;;;40.53;4.25;;;5.80;99.90;;;;;;5113076;28;20099;-78
2022/02/22 00:34:09;;;;;;;26.40;4.60;;;5.80;99.90;;;;;;5113111;28;20020;-77
2022/02/22 00:36:34;;;;;;;47.67;8.40;;;5.80;99.90;;;;;;5112621;28;20095;-77
2022/02/22 00:39:01;;;;;;;42.35;4.93;;;5.80;99.90;;;;;;5112964;28;20639;-77
2022/02/22 00:41:27;;;;;;;42.55;5.38;;;5.80;99.90;;;;;;5112703;28;20020;-77
2022/02/22 00:43:52;;;;;;;40.17;6.25;;;5.80;99.90;;;;;;5111391;28;20035;-77
2022/02/22 00:46:18;;;;;;;44.55;4.38;;;5.80;99.90;;;;;;5112670;28;20027;-76
2022/02/22 00:48:44;;;;;;;39.95;5.47;;;5.80;99.90;;;;;;5112564;28;20041;-76
2022/02/22 00:51:12;;;;;;;36.42;5.72;;;5.80;99.90;;;;;;5112686;28;20027;-78
2022/02/22 00:53:38;;;;;;;34.15;4.82;;;5.80;99.90;;;;;;5113226;28;20387;-78
2022/02/22 00:56:04;;;;;;;44.08;6.07;;;5.80;99.90;;;;;;5113197;28;20019;-76
2022/02/22 00:58:29;;;;;;;25.17;5.35;;;5.80;99.90;;;;;;5112702;28;20027;-76
2022/02/22 01:00:55;;;;;;;40.78;5.63;;;5.70;99.90;;;;;;5112280;28;20019;-78
2022/02/22 01:03:21;;;;;;;33.80;5.95;;;5.80;99.90;;;;;;5113995;28;20062;-77
2022/02/22 01:05:46;;;;;;;30.20;4.15;;;5.70;99.90;;;;;;5112666;28;20087;-78
2022/02/22 01:08:12;;;;;;;30.92;3.80;;;5.80;99.90;;;;;;5113247;28;20140;-76
2022/02/22 01:10:37;;;;;;;42.58;5.80;;;5.70;99.90;;;;;;5112795;28;20024;-76
2022/02/22 01:13:03;;;;;;;32.40;4.28;;;5.70;99.90;;;;;;5113581;28;20027;-76
2022/02/22 01:15:29;;;;;;;47.63;5.38;;;5.70;99.90;;;;;;5117083;28;20066;-76
2022/02/22 01:17:55;;;;;;;40.95;5.72;;;5.70;99.90;;;;;;5116543;28;20027;-76
2022/02/22 01:20:20;;;;;;;32.03;4.55;;;5.70;99.90;;;;;;5116133;28;20494;-77
2022/02/22 01:22:46;;;;;;;27.65;3.45;;;5.70;99.90;;;;;;5116171;28;20506;-78
2022/02/22 01:25:12;;;;;;;35.80;4.40;;;5.60;99.90;;;;;;5116761;28;20046;-78
2022/02/22 01:27:38;;;;;;;42.10;5.68;;;5.50;99.90;;;;;;5115471;28;20098;-76
2022/02/22 01:30:06;;;;;;;28.25;4.20;;;5.50;99.90;;;;;;5117006;28;20039;-77
2022/02/22 01:32:32;;;;;;;27.67;4.60;;;5.50;99.90;;;;;;5116430;28;20471;-76
2022/02/22 01:34:57;;;;;;;38.75;6.72;;;5.50;99.90;;;;;;5115894;28;20039;-77
2022/02/22 01:37:23;;;;;;;32.90;4.30;;;5.40;99.90;;;;;;5116765;28;20024;-78
2022/02/22 01:39:48;;;;;;;43.75;4.07;;;5.40;99.90;;;;;;5116282;28;20015;-76
2022/02/22 01:42:14;;;;;;;33.00;4.88;;;5.30;99.90;;;;;;5118003;28;20073;-76
2022/02/22 01:44:40;;;;;;;39.83;4.63;;;5.30;99.90;;;;;;5117705;28;20046;-76
2022/02/22 01:47:11;;;;;;;27.98;4.00;;;5.30;99.90;;;;;;5116391;28;20094;-77
2022/02/22 01:49:38;;;;;;;41.83;5.15;;;5.20;99.90;;;;;;5117071;28;20023;-77
2022/02/22 01:52:04;;;;;;;32.35;4.18;;;4.90;99.90;;;;;;5116890;28;20051;-78
2022/02/22 01:54:30;;;;;;;22.83;3.47;;;4.90;99.90;;;;;;5115942;28;20054;-78
2022/02/22 01:56:55;;;;;;;41.30;4.80;;;4.80;99.90;;;;;;5116606;28;20383;-77
2022/02/22 01:59:22;;;;;;;31.00;4.63;;;4.70;99.90;;;;;;5116762;28;20110;-77
2022/02/22 02:01:47;;;;;;;34.97;4.05;;;4.60;99.90;;;;;;5116235;28;20020;-77
2022/02/22 02:04:13;;;;;;;26.30;5.30;;;4.60;99.90;;;;;;5116512;28;20470;-76
2022/02/22 02:06:42;;;;;;;30.85;5.45;;;4.50;99.90;;;;;;5116171;28;20038;-76
2022/02/22 02:09:08;;;;;;;24.35;3.55;;;4.50;99.90;;;;;;5116054;28;20024;-76
2022/02/22 02:11:49;;;;;;;28.65;4.55;;;4.40;99.90;;;;;;5116329;28;20106;-77
2022/02/22 02:14:16;;;;;;;46.05;4.10;;;4.30;99.90;;;;;;5116321;28;20039;-76
2022/02/22 02:16:42;;;;;;;30.73;4.30;;;4.30;99.90;;;;;;5115686;28;20532;-77
2022/02/22 02:19:12;;;;;;;37.20;6.60;;;4.20;99.90;;;;;;5116979;28;20047;-76
2022/02/22 02:21:40;;;;;;;27.73;3.92;;;4.20;99.90;;;;;;5116060;28;20065;-78
2022/02/22 02:24:15;;;;;;;32.15;4.28;;;4.30;99.90;;;;;;5115086;28;20096;-77
2022/02/22 02:26:42;;;;;;;40.72;4.53;;;4.30;99.90;;;;;;5114731;28;20491;-77
2022/02/22 02:29:09;;;;;;;24.63;4.13;;;4.40;99.90;;;;;;5114939;28;20019;-77
2022/02/22 02:31:36;;;;;;;34.88;4.35;;;4.40;99.90;;;;;;5115073;28;20023;-77
2022/02/22 02:34:03;;;;;;;32.90;3.65;;;4.50;99.90;;;;;;5115235;28;20024;-77
2022/02/22 02:36:32;;;;;;;36.63;4.93;;;4.50;99.90;;;;;;5114307;28;20035;-77
2022/02/22 02:38:57;;;;;;;33.60;4.15;;;4.50;99.90;;;;;;5114995;28;20881;-78
2022/02/22 02:41:23;;;;;;;32.58;6.13;;;4.50;99.90;;;;;;5115035;28;20043;-77
2022/02/22 02:43:48;;;;;;;41.88;6.03;;;4.40;99.90;;;;;;5114088;28;20019;-77
2022/02/22 02:46:14;;;;;;;28.92;4.22;;;4.50;99.90;;;;;;5114602;28;20032;-78
2022/02/22 02:48:39;;;;;;;36.03;5.45;;;4.50;99.90;;;;;;5114255;28;20024;-77
2022/02/22 02:51:05;;;;;;;36.50;4.13;;;4.50;99.90;;;;;;5114188;28;20024;-77
2022/02/22 02:53:30;;;;;;;37.95;3.80;;;4.40;99.90;;;;;;5114836;28;20024;-76
2022/02/22 02:55:56;;;;;;;24.20;3.45;;;4.30;99.90;;;;;;5114496;28;20040;-76
2022/02/22 02:58:21;;;;;;;26.13;3.35;;;4.30;99.90;;;;;;5114227;28;20019;-77
2022/02/22 03:00:47;;;;;;;36.97;5.07;;;4.30;99.90;;;;;;5114546;28;20079;-76
2022/02/22 03:03:13;;;;;;;23.88;4.07;;;4.20;99.90;;;;;;5114481;28;20058;-76
2022/02/22 03:05:38;;;;;;;36.67;4.75;;;4.20;99.90;;;;;;5113548;28;20055;-77
2022/02/22 03:08:04;;;;;;;30.60;4.57;;;4.10;99.90;;;;;;5114157;28;20439;-77
2022/02/22 03:10:30;;;;;;;38.92;7.18;;;4.10;99.90;;;;;;5114959;28;20065;-78
2022/02/22 03:12:55;;;;;;;39.90;5.88;;;4.30;99.90;;;;;;5114440;28;20069;-78
2022/02/22 03:15:24;;;;;;;37.15;4.28;;;4.50;99.90;;;;;;5115764;28;20055;-77
2022/02/22 03:17:49;;;;;;;31.48;4.40;;;4.40;99.90;;;;;;5114705;28;20471;-77
2022/02/22 03:20:15;;;;;;;27.42;3.70;;;4.40;99.90;;;;;;5114676;28;20023;-78
2022/02/22 03:22:45;;;;;;;32.03;4.25;;;4.30;99.90;;;;;;5114879;28;20023;-79
2022/02/22 03:25:12;;;;;;;32.83;4.45;;;4.40;99.90;;;;;;5114567;28;20035;-78
2022/02/22 03:27:38;;;;;;;31.15;5.30;;;4.60;99.90;;;;;;5114182;28;20068;-76
2022/02/22 03:30:05;;;;;;;36.05;5.80;;;4.60;99.90;;;;;;5114690;28;20035;-75
2022/02/22 03:32:31;;;;;;;38.35;5.28;;;4.50;99.90;;;;;;5114816;28;20502;-77
2022/02/22 03:34:56;;;;;;;21.23;3.50;;;4.50;99.90;;;;;;5114563;28;20036;-77
2022/02/22 03:37:22;;;;;;;30.60;3.13;;;4.50;99.90;;;;;;5114252;28;20026;-77
2022/02/22 03:39:47;;;;;;;27.73;4.20;;;4.50;99.90;;;;;;5112643;28;20036;-78
2022/02/22 03:42:13;;;;;;;25.63;4.45;;;4.40;99.90;;;;;;5114212;28;20019;-76
2022/02/22 03:44:38;;;;;;;38.65;7.38;;;4.40;99.90;;;;;;5114078;28;20063;-77
2022/02/22 03:47:04;;;;;;;40.88;5.20;;;4.40;99.90;;;;;;5113034;28;20036;-78
2022/02/22 03:49:30;;;;;;;46.72;4.93;;;4.40;99.90;;;;;;5113732;28;20024;-77
2022/02/22 03:51:55;;;;;;;34.17;5.50;;;4.40;99.90;;;;;;5113252;28;20140;-78
2022/02/22 03:54:21;;;;;;;37.67;4.20;;;4.30;99.90;;;;;;5113503;28;20371;-75
2022/02/22 03:56:46;;;;;;;30.50;3.63;;;4.40;99.90;;;;;;5113388;28;20019;-76
2022/02/22 03:59:12;;;;;;;24.80;3.33;;;4.50;99.90;;;;;;5120407;27;20116;-77
2022/02/22 04:01:37;;;;;;;19.80;2.80;;;4.50;99.90;;;;;;5133239;27;20459;-78
2022/02/22 04:04:06;;;;;;;30.02;3.63;;;4.50;99.90;;;;;;5133872;27;20057;-76
2022/02/22 04:06:32;;;;;;;31.35;4.10;;;4.60;99.90;;;;;;5134148;27;20085;-76
2022/02/22 04:08:57;;;;;;;35.92;4.47;;;4.50;99.90;;;;;;5132655;27;20038;-76
2022/02/22 04:11:23;;;;;;;40.20;4.97;;;4.50;99.90;;;;;;5134547;27;20027;-76
2022/02/22 04:13:48;;;;;;;25.52;3.33;;;4.50;99.90;;;;;;5133775;27;20029;-78
2022/02/22 04:16:14;;;;;;;37.50;7.60;;;4.70;99.90;;;;;;5133226;27;20474;-75
2022/02/22 04:18:40;;;;;;;31.10;5.05;;;4.60;99.90;;;;;;5134122;27;20027;-76
2022/02/22 04:21:05;;;;;;;33.60;3.45;;;4.60;99.90;;;;;;5133929;27;20376;-77
2022/02/22 04:23:31;;;;;;;21.52;3.53;;;4.60;99.90;;;;;;5134028;27;20038;-76
2022/02/22 04:25:57;;;;;;;29.77;3.97;;;4.60;99.90;;;;;;5134425;27;20053;-76
2022/02/22 04:28:22;;;;;;;28.85;4.85;;;4.70;99.90;;;;;;5133493;27;20029;-76
2022/02/22 04:30:48;;;;;;;25.77;3.60;;;4.70;99.90;;;;;;5134186;27;20058;-76
2022/02/22 04:33:13;;;;;;;27.25;3.92;;;4.60;99.90;;;;;;5134380;27;20023;-76
2022/02/22 04:35:39;;;;;;;23.88;3.22;;;4.60;99.90;;;;;;5133752;28;20088;-78
2022/02/22 04:38:04;;;;;;;20.75;2.92;;;4.50;99.90;;;;;;5133470;28;20019;-76
2022/02/22 04:40:30;;;;;;;28.80;3.00;;;4.50;99.90;;;;;;5133902;28;20027;-76
2022/02/22 04:42:56;;;;;;;29.00;3.72;;;4.40;99.90;;;;;;5134390;28;20050;-76
2022/02/22 04:45:22;;;;;;;30.60;3.42;;;4.50;99.90;;;;;;5133790;28;20047;-77
2022/02/22 04:47:48;;;;;;;22.75;3.15;;;4.50;99.90;;;;;;5133615;27;20019;-77
2022/02/22 04:50:16;;;;;;;33.33;5.07;;;4.50;99.90;;;;;;5137872;27;20034;-76
2022/02/22 04:52:41;;;;;;;22.95;2.75;;;4.40;99.90;;;;;;5137816;27;20047;-79
2022/02/22 04:55:07;;;;;;;22.05;2.58;;;4.30;99.90;;;;;;5137936;27;20026;-76
2022/02/22 04:57:36;;;;;;;28.55;3.25;;;4.20;99.90;;;;;;5137483;27;20467;-77
2022/02/22 05:00:05;;;;;;;26.17;3.20;;;4.10;99.90;;;;;;5138006;27;20027;-77
2022/02/22 05:02:31;;;;;;;20.02;3.40;;;4.00;99.90;;;;;;5138470;27;20030;-77
2022/02/22 05:04:56;;;;;;;17.42;3.22;;;3.90;99.90;;;;;;5136989;27;20035;-76
2022/02/22 05:07:22;;;;;;;19.83;3.35;;;3.90;99.90;;;;;;5137819;27;20031;-76
2022/02/22 05:09:47;;;;;;;17.77;2.97;;;3.90;99.90;;;;;;5137403;27;20019;-77
2022/02/22 05:12:13;;;;;;;15.32;3.30;;;3.80;99.90;;;;;;5137251;27;20042;-76
2022/02/22 05:14:38;;;;;;;24.42;2.75;;;3.80;99.90;;;;;;5137106;27;20110;-76
2022/02/22 05:17:04;;;;;;;19.73;3.28;;;3.80;99.90;;;;;;5137595;27;20472;-77
2022/02/22 05:19:30;;;;;;;19.95;3.55;;;3.90;99.90;;;;;;5137013;27;20034;-76
2022/02/22 05:21:55;;;;;;;23.80;4.55;;;3.90;99.90;;;;;;5136982;27;20035;-76
2022/02/22 05:24:21;;;;;;;21.08;3.83;;;4.00;99.90;;;;;;5137527;27;20391;-78
2022/02/22 05:26:46;;;;;;;19.10;3.25;;;3.90;99.90;;;;;;5136525;27;20027;-76
2022/02/22 05:29:12;;;;;;;28.88;4.47;;;3.90;99.90;;;;;;5119092;27;20046;-77
2022/02/22 05:31:38;;;;;;;22.70;4.00;;;3.90;99.90;;;;;;5136604;27;20053;-77
2022/02/22 05:34:04;;;;;;;22.90;5.38;;;4.00;99.90;;;;;;5137185;27;20023;-77
2022/02/22 05:36:30;;;;;;;22.92;4.57;;;4.00;99.90;;;;;;5137626;27;20024;-77
2022/02/22 05:38:55;;;;;;;24.55;3.78;;;4.10;99.90;;;;;;5135811;27;20031;-76
2022/02/22 05:41:21;;;;;;;27.27;3.47;;;4.10;99.90;;;;;;5137710;27;20023;-77
2022/02/22 05:43:48;;;;;;;24.98;3.40;;;4.20;99.90;;;;;;5137180;27;20470;-77
2022/02/22 05:46:14;;;;;;;29.77;5.32;;;4.30;99.90;;;;;;5136120;27;20026;-77
2022/02/22 05:48:40;;;;;;;27.98;3.08;;;4.30;99.90;;;;;;5136092;27;20019;-75
2022/02/22 05:51:06;;;;;;;22.67;2.97;;;4.30;99.90;;;;;;5136411;27;20109;-76
2022/02/22 05:53:35;;;;;;;18.70;3.10;;;4.40;99.90;;;;;;5136638;27;20025;-77
2022/02/22 05:56:01;;;;;;;21.63;3.72;;;4.30;99.90;;;;;;5136634;27;20031;-76
2022/02/22 05:58:27;;;;;;;24.33;6.57;;;4.30;99.90;;;;;;5137169;27;20064;-77
2022/02/22 06:00:52;;;;;;;18.10;3.15;;;4.20;99.90;;;;;;5135976;27;20027;-77
2022/02/22 06:03:18;;;;;;;17.05;2.65;;;4.30;99.90;;;;;;5136997;27;20023;-76
2022/02/22 06:05:43;;;;;;;22.23;3.67;;;4.20;99.90;;;;;;5136625;27;20034;-76
2022/02/22 06:08:09;;;;;;;19.65;2.75;;;4.30;99.90;;;;;;5136321;27;20059;-76
2022/02/22 06:10:34;;;;;;;15.95;2.95;;;4.30;99.90;;;;;;5136722;27;20490;-76
2022/02/22 06:13:00;;;;;;;22.85;2.97;;;4.40;99.90;;;;;;5136195;27;20031;-76
2022/02/22 06:15:25;;;;;;;22.63;3.50;;;4.40;99.90;;;;;;5136486;27;20027;-75
2022/02/22 06:17:51;;;;;;;27.25;3.47;;;4.50;99.90;;;;;;5136209;27;20019;-76
2022/02/22 06:20:16;;;;;;;26.52;3.60;;;4.40;99.90;;;;;;5136560;27;20436;-76
2022/02/22 06:22:42;;;;;;;24.23;3.50;;;4.40;99.90;;;;;;5135043;27;20031;-76
2022/02/22 06:25:09;;;;;;;21.40;5.07;;;4.40;99.90;;;;;;5135444;27;20035;-76
2022/02/22 06:27:46;;;;;;;19.70;2.80;;;4.40;99.90;;;;;;5135626;27;20035;-75
2022/02/22 06:30:12;;;;;;;11.48;2.60;;;4.30;99.90;;;;;;5134844;27;20106;-77
2022/02/22 06:32:37;;;;;;;15.93;3.13;;;4.30;99.90;;;;;;5135450;27;20058;-78
2022/02/22 06:35:03;;;;;;;30.85;3.65;;;4.30;99.90;;;;;;5134907;27;20019;-76
2022/02/22 06:37:29;;;;;;;22.30;3.92;;;4.30;99.90;;;;;;5135991;27;20100;-77
2022/02/22 06:39:54;;;;;;;19.42;2.95;;;4.20;99.90;;;;;;5135241;27;20019;-76
2022/02/22 06:42:20;;;;;;;12.60;2.30;;;4.30;99.90;;;;;;5134687;27;20467;-77
2022/02/22 06:44:45;;;;;;;17.88;2.97;;;4.30;99.90;;;;;;5134886;27;20039;-76
2022/02/22 06:47:11;;;;;;;27.63;3.92;;;4.30;99.90;;;;;;5135319;27;20385;-75
2022/02/22 06:49:36;;;;;;;17.70;3.22;;;4.30;99.90;;;;;;5134712;27;20023;-76
2022/02/22 06:52:02;;;;;;;18.70;2.28;;;4.40;99.90;;;;;;5134902;27;20390;-77
2022/02/22 06:54:28;;;;;;;22.00;2.72;;;4.50;99.90;;;;;;5135085;27;20093;-77
2022/02/22 06:56:53;;;;;;;16.45;2.28;;;4.50;99.90;;;;;;5133750;27;20042;-76
2022/02/22 06:59:19;;;;;;;23.33;2.78;;;4.60;99.90;;;;;;5134991;27;20019;-76
2022/02/22 07:01:44;;;;;;;17.85;3.30;;;4.60;99.90;;;;;;5134571;27;20030;-77
2022/02/22 07:04:10;;;;;;;15.13;2.42;;;4.70;99.90;;;;;;5134704;27;20035;-76
2022/02/22 07:06:35;;;;;;;26.38;2.83;;;4.80;99.90;;;;;;5135353;27;20023;-75
2022/02/22 07:09:01;;;;;;;23.38;2.92;;;4.90;99.90;;;;;;5134888;27;20099;-75
2022/02/22 07:11:26;;;;;;;29.00;2.72;;;4.90;99.90;;;;;;5133500;27;20023;-76
2022/02/22 07:13:55;;;;;;;19.38;2.50;;;5.00;99.90;;;;;;5134856;27;20015;-77
2022/02/22 07:16:20;;;;;;;19.17;2.92;;;5.00;99.90;;;;;;5135026;27;20030;-76
2022/02/22 07:18:46;;;;;;;21.38;3.13;;;5.00;99.90;;;;;;5133709;27;20471;-76
2022/02/22 07:21:12;;;;;;;23.30;3.38;;;5.20;99.90;;;;;;5134943;27;20024;-77
2022/02/22 07:23:37;;;;;;;26.98;4.50;;;5.20;99.90;;;;;;5135014;27;20090;-78
2022/02/22 07:26:03;;;;;;;32.25;3.65;;;5.30;99.90;;;;;;5134547;27;20126;-77
2022/02/22 07:28:28;;;;;;;23.25;3.50;;;5.40;99.90;;;;;;5135248;27;20079;-77
2022/02/22 07:30:54;;;;;;;21.13;5.57;;;5.50;99.90;;;;;;5134901;27;20057;-76
2022/02/22 07:33:19;;;;;;;22.75;4.40;;;5.50;99.90;;;;;;5134260;27;20023;-77
2022/02/22 07:35:45;;;;;;;32.67;3.83;;;5.60;99.90;;;;;;5133994;27;20026;-77
2022/02/22 07:38:10;;;;;;;17.60;4.38;;;5.60;99.90;;;;;;5134903;27;20023;-77
2022/02/22 07:40:37;;;;;;;29.42;3.92;;;5.60;99.90;;;;;;5134160;27;20374;-77
2022/02/22 07:43:03;;;;;;;20.52;3.75;;;5.70;99.90;;;;;;5134730;27;20072;-76
2022/02/22 07:45:28;;;;;;;25.38;4.85;;;5.80;99.90;;;;;;5134088;27;20035;-77
2022/02/22 07:47:54;;;;;;;31.52;4.30;;;5.80;99.90;;;;;;5135288;27;20025;-77
2022/02/22 07:50:19;;;;;;;35.75;4.95;;;5.90;99.90;;;;;;5135500;27;20061;-78
2022/02/22 07:52:46;;;;;;;29.42;4.93;;;5.90;99.90;;;;;;5134710;27;20046;-77
2022/02/22 07:55:12;;;;;;;24.05;3.58;;;6.10;99.90;;;;;;5134975;27;20024;-78
2022/02/22 07:57:38;;;;;;;35.13;5.38;;;6.00;99.90;;;;;;5134111;27;20027;-78
2022/02/22 08:00:05;;;;;;;40.50;5.18;;;6.10;99.90;;;;;;5134309;27;20024;-77
2022/02/22 08:02:31;;;;;;;30.10;4.32;;;6.20;99.90;;;;;;5134618;27;20031;-78
2022/02/22 08:04:56;;;;;;;26.20;5.47;;;6.20;99.90;;;;;;5135046;27;20095;-76
2022/02/22 08:07:22;;;;;;;27.00;4.53;;;6.30;99.90;;;;;;5134063;27;20023;-77
2022/02/22 08:09:48;;;;;;;35.92;6.65;;;6.40;99.90;;;;;;5134101;27;20055;-76
2022/02/22 08:12:14;;;;;;;20.50;4.38;;;6.60;99.90;;;;;;5135028;27;20027;-77
2022/02/22 08:14:40;;;;;;;29.95;5.22;;;6.60;99.90;;;;;;5133430;27;20015;-77
2022/02/22 08:17:06;;;;;;;25.00;4.68;;;6.60;99.90;;;;;;5134053;27;20352;-76
2022/02/22 08:19:31;;;;;;;34.83;4.82;;;6.70;99.90;;;;;;5134031;27;20023;-76
2022/02/22 08:21:57;;;;;;;26.10;3.97;;;6.80;99.90;;;;;;5133396;27;20023;-76
2022/02/22 08:24:24;;;;;;;25.40;4.32;;;6.90;99.90;;;;;;5133633;27;20046;-76
2022/02/22 08:26:56;;;;;;;35.85;5.53;;;6.90;99.90;;;;;;5134324;27;20108;-77
2022/02/22 08:29:22;;;;;;;36.47;5.25;;;6.90;99.90;;;;;;5133881;27;20031;-76
2022/02/22 08:31:49;;;;;;;22.70;4.35;;;6.90;99.90;;;;;;5134310;27;20023;-76
2022/02/22 08:34:15;;;;;;;35.45;4.75;;;7.00;99.90;;;;;;5134353;27;20103;-78
2022/02/22 08:36:40;;;;;;;33.05;4.80;;;6.90;99.90;;;;;;5133803;27;20059;-77
2022/02/22 08:39:06;;;;;;;32.05;4.35;;;7.00;99.90;;;;;;5134633;27;20049;-76
2022/02/22 08:41:32;;;;;;;25.35;4.93;;;7.00;99.90;;;;;;5136327;28;20027;-76
2022/02/22 08:43:57;;;;;;;27.45;4.38;;;7.10;99.90;;;;;;5135088;27;20043;-76
2022/02/22 08:46:23;;;;;;;28.88;5.13;;;7.10;99.90;;;;;;5134237;27;20016;-77
2022/02/22 08:48:49;;;;;;;31.90;4.78;;;7.20;99.90;;;;;;5133717;28;20171;-76
2022/02/22 08:51:16;;;;;;;41.75;5.57;;;7.20;99.90;;;;;;5133590;27;20102;-77
2022/02/22 08:53:41;;;;;;;35.72;7.03;;;7.30;99.90;;;;;;5135348;28;20051;-76
2022/02/22 08:56:07;;;;;;;26.42;4.47;;;7.40;99.90;;;;;;5133117;28;20023;-76
2022/02/22 08:58:33;;;;;;;35.72;5.55;;;7.50;99.90;;;;;;5132837;28;20478;-78
2022/02/22 09:00:58;;;;;;;31.98;5.13;;;7.50;99.90;;;;;;5132798;28;20076;-76
2022/02/22 09:03:25;;;;;;;28.52;5.40;;;7.50;99.90;;;;;;5132205;27;20116;-77
2022/02/22 09:05:51;;;;;;;32.28;5.18;;;7.60;99.90;;;;;;5133315;27;20142;-77
2022/02/22 09:08:26;;;;;;;23.83;4.75;;;7.60;99.90;;;;;;5133574;27;20390;-76
2022/02/22 09:10:51;;;;;;;20.55;4.15;;;7.70;99.90;;;;;;5132629;28;20019;-77
2022/02/22 09:13:17;;;;;;;27.52;5.50;;;7.70;99.90;;;;;;5133811;28;20022;-77
2022/02/22 09:15:43;;;;;;;34.33;5.47;;;7.70;99.90;;;;;;5133159;27;20498;-76
2022/02/22 09:18:09;;;;;;;23.45;5.38;;;7.70;99.90;;;;;;5131850;27;20019;-77
2022/02/22 09:20:35;;;;;;;28.45;5.93;;;7.70;99.90;;;;;;5133602;27;20094;-77
2022/02/22 09:23:01;;;;;;;31.90;5.05;;;7.70;99.90;;;;;;5132976;28;20027;-76
2022/02/22 09:25:32;;;;;;;32.55;5.78;;;7.70;99.90;;;;;;5132498;28;20050;-76
2022/02/22 09:28:08;;;;;;;32.42;5.70;;;7.70;99.90;;;;;;5132751;28;20474;-76
2022/02/22 09:30:35;;;;;;;28.77;7.93;;;7.80;99.90;;;;;;5133608;28;20075;-76
2022/02/22 09:33:01;;;;;;;20.20;5.60;;;7.80;99.90;;;;;;5132294;28;20033;-76
2022/02/22 09:35:27;;;;;;;22.58;6.80;;;7.80;99.90;;;;;;5136306;27;20023;-77
2022/02/22 09:37:54;;;;;;;35.92;7.47;;;7.80;99.90;;;;;;5136249;27;20024;-78
2022/02/22 09:40:20;;;;;;;31.88;6.40;;;7.90;99.90;;;;;;5137084;27;20015;-77
2022/02/22 09:42:46;;;;;;;29.60;6.32;;;8.00;99.90;;;;;;5136671;27;20114;-76
2022/02/22 09:45:12;;;;;;;23.98;5.38;;;8.00;99.90;;;;;;5136831;27;20110;-76
2022/02/22 09:47:40;;;;;;;30.13;5.57;;;8.00;99.90;;;;;;5136779;27;20027;-76
2022/02/22 09:50:07;;;;;;;28.92;5.15;;;8.00;99.90;;;;;;5137126;27;20091;-77
2022/02/22 09:52:33;;;;;;;23.77;5.43;;;8.00;99.90;;;;;;5136104;27;20363;-77
2022/02/22 09:54:58;;;;;;;25.90;6.00;;;8.00;99.90;;;;;;5136171;27;20038;-77
2022/02/22 09:57:24;;;;;;;23.10;5.18;;;8.10;99.90;;;;;;5136544;27;20023;-78
2022/02/22 09:59:49;;;;;;;33.45;5.72;;;8.20;99.90;;;;;;5135512;27;20047;-76
2022/02/22 10:02:15;;;;;;;31.55;5.93;;;8.20;99.90;;;;;;5136261;27;20027;-76
2022/02/22 10:04:46;;;;;;;26.45;7.50;;;8.20;99.90;;;;;;5135917;27;20043;-76
2022/02/22 10:07:11;;;;;;;;;;;8.30;99.90;;;;;;5135704;27;20079;-77
2022/02/22 10:10:02;;;;;;;28.95;6.93;;;8.20;99.90;;;;;;5136838;27;20391;-77
2022/02/22 10:12:29;;;;;;;37.10;6.50;;;8.20;99.90;;;;;;5137265;27;20031;-78
2022/02/22 10:14:57;;;;;;;33.35;5.93;;;8.20;99.90;;;;;;5136631;27;20076;-75
2022/02/22 10:17:23;;;;;;;55.65;8.82;;;8.30;99.90;;;;;;5136895;27;20027;-77
2022/02/22 10:19:58;;;;;;;42.05;7.07;;;8.30;99.90;;;;;;5136586;27;20034;-76
2022/02/22 10:22:25;;;;;;;31.42;5.72;;;8.30;99.90;;;;;;5136675;27;20049;-76
2022/02/22 10:25:02;;;;;;;34.88;6.95;;;8.30;99.90;;;;;;5136209;27;20118;-77
2022/02/22 10:27:28;;;;;;;34.38;6.22;;;8.30;99.90;;;;;;5136084;27;20026;-77
2022/02/22 10:29:55;;;;;;;35.90;6.95;;;8.20;99.90;;;;;;5135512;27;20023;-77
2022/02/22 10:32:25;;;;;;;32.88;5.55;;;8.20;99.90;;;;;;5136243;27;20031;-76
2022/02/22 10:34:51;;;;;;;37.47;6.23;;;8.20;99.90;;;;;;5135491;27;20027;-76
2022/02/22 10:37:17;;;;;;;35.65;7.88;;;8.20;99.90;;;;;;5136897;27;20030;-77
2022/02/22 10:39:42;;;;;;;37.38;6.80;;;8.20;99.90;;;;;;5136377;27;20114;-78
2022/02/22 10:42:08;;;;;;;39.08;7.07;;;8.30;99.90;;;;;;5135550;27;20019;-77
2022/02/22 10:44:39;;;;;;;33.13;6.80;;;8.30;99.90;;;;;;5136321;27;20138;-76
2022/02/22 10:47:17;;;;;;;35.17;6.95;;;8.30;99.90;;;;;;5134680;27;20050;-77
2022/02/22 10:49:42;;;;;;;46.08;7.85;;;8.30;99.90;;;;;;5134823;27;20047;-78
2022/02/22 10:52:11;;;;;;;38.85;6.00;;;8.30;99.90;;;;;;5135961;27;20026;-77
2022/02/22 10:54:36;;;;;;;21.20;5.57;;;8.30;99.90;;;;;;5135696;27;20036;-77
2022/02/22 10:57:03;;;;;;;32.50;6.80;;;8.20;99.90;;;;;;5135105;27;20023;-78
2022/02/22 10:59:29;;;;;;;33.05;6.22;;;8.30;99.90;;;;;;5135984;27;20102;-77
2022/02/22 11:02:03;;;;;;;30.88;6.93;;;8.20;99.90;;;;;;5135737;27;20459;-77
2022/02/22 11:04:28;;;;;;;36.53;6.45;;;8.20;99.90;;;;;;5134206;27;20406;-76
2022/02/22 11:06:54;;;;;;;30.17;6.28;;;8.30;99.90;;;;;;5134970;27;20026;-77
2022/02/22 11:09:21;;;;;;;28.65;5.90;;;8.30;99.90;;;;;;5134609;27;20047;-76
2022/02/22 11:12:02;;;;;;;37.28;7.53;;;8.30;99.90;;;;;;5135352;27;20466;-76
2022/02/22 11:14:30;;;;;;;35.22;6.43;;;8.30;99.90;;;;;;5137469;27;20034;-75
2022/02/22 11:17:17;;;;;;;38.15;7.65;;;8.40;99.90;;;;;;5134796;27;20031;-78
2022/02/22 11:19:45;;;;;;;41.65;7.90;;;8.40;99.90;;;;;;5135075;27;20015;-78
2022/02/22 11:22:23;;;;;;;27.40;8.18;;;8.40;99.90;;;;;;5135782;27;20031;-79
2022/02/22 11:24:57;;;;;;;27.58;7.22;;;8.40;99.90;;;;;;5135439;27;20047;-76
2022/02/22 11:27:27;;;;;;;29.92;7.55;;;8.50;99.90;;;;;;5137452;27;20072;-78
2022/02/22 11:30:04;;;;;;;41.13;8.60;;;8.40;99.90;;;;;;5135316;27;20400;-76
2022/02/22 11:32:30;;;;;;;33.05;7.53;;;8.50;99.90;;;;;;5135267;27;20035;-77
2022/02/22 11:34:56;;;;;;;39.33;8.05;;;8.60;99.90;;;;;;5135714;27;20118;-77
2022/02/22 11:37:31;;;;;;;38.70;9.65;;;8.70;99.90;;;;;;5135402;27;20062;-78
2022/02/22 11:39:57;;;;;;;34.75;8.65;;;8.80;99.90;;;;;;5136023;27;20050;-77
2022/02/22 11:42:28;;;;;;;42.17;9.93;;;8.90;99.90;;;;;;5134886;27;20038;-78
2022/02/22 11:45:06;;;;;;;43.92;9.00;;;8.90;99.90;;;;;;5134040;27;20066;-78
2022/02/22 11:47:34;;;;;;;46.00;10.68;;;9.00;99.90;;;;;;5135378;27;20046;-78
2022/02/22 11:50:00;;;;;;;35.75;7.72;;;9.10;99.90;;;;;;5136137;27;20023;-78
2022/02/22 11:52:40;;;;;;;36.65;8.75;;;9.10;99.90;;;;;;5135095;27;20020;-77
2022/02/22 11:55:08;;;;;;;34.63;8.30;;;9.20;99.90;;;;;;5135708;27;20064;-78
2022/02/22 11:57:49;;;;;;;42.03;9.15;;;9.20;99.90;;;;;;5135296;27;20031;-76
2022/02/22 12:00:17;;;;;;;36.05;7.20;;;9.20;99.90;;;;;;5134700;27;20091;-76
2022/02/22 12:02:44;;;;;;;19.65;6.68;;;9.30;99.90;;;;;;5134783;27;20038;-77
2022/02/22 12:05:38;;;;;;;27.90;8.00;;;9.30;99.90;;;;;;5135084;27;20042;-77
2022/02/22 12:08:24;;;;;;;33.08;7.88;;;9.40;99.90;;;;;;5135387;27;20387;-78
2022/02/22 12:10:55;;;;;;;33.50;8.23;;;9.40;99.90;;;;;;5135761;27;20027;-78
2022/02/22 12:13:27;;;;;;;36.28;6.93;;;9.40;99.90;;;;;;5133984;27;20027;-78
2022/02/22 12:15:53;;;;;;;32.30;6.95;;;9.40;99.90;;;;;;5134687;27;20427;-77
2022/02/22 12:18:22;;;;;;;32.50;7.65;;;9.40;99.90;;;;;;5134959;27;20027;-76
2022/02/22 12:20:50;;;;;;;25.27;6.63;;;9.40;99.90;;;;;;5133893;27;20095;-77
2022/02/22 12:23:19;;;;;;;27.30;7.03;;;9.40;99.90;;;;;;5135198;27;20023;-77
2022/02/22 12:25:45;;;;;;;35.08;7.07;;;9.50;99.90;;;;;;5134140;27;20071;-76
2022/02/22 12:28:11;;;;;;;22.48;6.32;;;9.50;99.90;;;;;;5134205;27;20063;-77
2022/02/22 12:30:39;;;;;;;28.95;7.18;;;9.50;99.90;;;;;;5134834;27;20104;-76
2022/02/22 12:33:05;;;;;;;28.75;6.43;;;9.50;99.90;;;;;;5134523;27;20035;-78
2022/02/22 12:35:37;;;;;;;22.33;7.05;;;9.50;99.90;;;;;;5134265;27;20030;-78
2022/02/22 12:38:23;;;;;;;25.30;6.00;;;9.60;99.90;;;;;;5135222;27;20114;-77
2022/02/22 12:40:50;;;;;;;26.63;6.10;;;9.70;99.90;;;;;;5134017;28;20045;-80
2022/02/22 12:43:17;;;;;;;25.30;7.07;;;9.70;99.90;;;;;;5134618;28;20072;-77
2022/02/22 12:45:53;;;;;;;31.73;7.30;;;9.80;99.90;;;;;;5134434;28;20031;-79